Terminal Aerodrome Forecast
Issued by NWS

Home | Current Version | Previous Version | Text Only | Print | Product List | Glossary On
Versions: 1 2 3 4 5 6 7 8 9 10 11 12 13
000
FTUS45 KRIW 281100
TAFRKS
TAF
KRKS 281124Z 2812/2912 25014G20KT P6SM FEW120 SCT200 WS018/27035KT
     FM290500 24020KT P6SM FEW100 SCT200 WS018/26045KT=

USA.gov is the U.S. government's official web portal to all federal, state and local government web resources and services.